.
WxDataArchive / Data Records for 2008-12-21
2008-12-20 December 2008 2008-12-22

Data Records for Sunday, 21 December 2008

Time	Temp	Chill	HIndex	Humid	Dewpt	 Wind 	HiWind	WindDir	Rain 	Barom 
-----	----	-----	------	-----	-----	------	------	-------	-----	----- 
00:00	23.9	23.9	23.9	92	21.9	0	0	---	0.00	29.723 
00:05	23.9	23.9	23.9	92	21.9	0	0	---	0.00	29.718 
00:10	23.9	23.9	23.9	92	21.9	0	0	---	0.00	29.721 
00:15	24.1	24.1	24.1	92	22.1	0	0	---	0.00	29.714 
00:20	24.1	24.1	24.1	92	22.1	0	0	---	0.00	29.713 
00:25	24.1	24.1	24.1	92	22.1	0	0	---	0.00	29.711 
00:30	24.1	24.1	24.1	92	22.1	0	0	---	0.00	29.708 
00:35	24.1	24.1	24.1	92	22.1	0	0	---	0.00	29.705 
00:40	24.2	24.2	24.2	92	22.2	0	0	---	0.00	29.707 
00:45	24.2	24.2	24.2	92	22.2	0	0	---	0.00	29.701 
00:50	24.4	24.4	24.4	92	22.4	0	0	---	0.00	29.698 
00:55	24.4	24.4	24.4	92	22.4	0	0	---	0.00	29.696 
01:00	24.4	24.4	24.4	92	22.4	0	0	---	0.00	29.693 
01:05	24.5	24.5	24.5	92	22.5	0	0	---	0.00	29.692 
01:10	24.7	24.7	24.7	92	22.7	0	0	---	0.00	29.690 
01:15	24.7	24.7	24.7	92	22.7	0	0	---	0.00	29.691 
01:20	24.7	24.7	24.7	92	22.7	0	0	---	0.00	29.690 
01:25	24.8	24.8	24.8	93	23.1	0	0	---	0.00	29.689 
01:30	24.8	24.8	24.8	93	23.1	0	0	---	0.00	29.669 
01:35	25.0	25.0	25.0	93	23.3	0	0	---	0.00	29.667 
01:40	25.0	25.0	25.0	93	23.3	0	0	---	0.00	29.675 
01:45	25.1	25.1	25.1	93	23.4	0	0	---	0.00	29.673 
01:50	25.1	25.1	25.1	93	23.4	0	0	---	0.00	29.677 
01:55	25.3	25.3	25.3	93	23.6	0	0	---	0.00	29.675 
02:00	25.4	25.4	25.4	93	23.7	0	0	---	0.00	29.676 
02:05	25.4	25.4	25.4	93	23.7	0	0	---	0.00	29.674 
02:10	25.6	25.6	25.6	93	23.9	0	0	---	0.00	29.674 
02:15	25.7	25.7	25.7	93	24.0	0	0	---	0.00	29.674 
02:20	25.8	25.8	25.8	93	24.1	0	0	---	0.00	29.673 
02:25	26.0	26.0	26.0	93	24.3	0	0	---	0.00	29.674 
02:30	26.1	26.1	26.1	93	24.4	0	0	---	0.00	29.678 
02:35	26.3	26.3	26.3	93	24.6	0	0	---	0.00	29.676 
02:40	26.4	26.4	26.4	93	24.7	0	0	---	0.00	29.674 
02:45	26.4	26.4	26.4	93	24.7	0	0	---	0.00	29.675 
02:50	26.6	26.6	26.6	93	24.9	0	0	---	0.00	29.677 
02:55	26.7	26.7	26.7	92	24.7	0	0	---	0.00	29.674 
03:00	26.7	26.7	26.7	92	24.7	0	0	---	0.00	29.683 
03:05	26.7	26.7	26.7	92	24.7	0	0	---	0.00	29.686 
03:10	26.9	26.9	26.9	92	24.9	0	0	---	0.00	29.687 
03:15	26.9	26.9	26.9	92	24.9	0	0	---	0.00	29.684 
03:20	26.9	26.9	26.9	92	24.9	0	0	---	0.00	29.688 
03:25	26.9	26.9	26.9	92	24.9	0	0	---	0.00	29.687 
03:30	26.7	26.7	26.7	92	24.7	0	0	---	0.00	29.691 
03:35	26.3	26.3	26.3	90	23.8	0	0	---	0.00	29.694 
03:40	25.4	25.4	25.4	89	22.6	0	0	---	0.00	29.698 
03:45	24.7	24.7	24.7	88	21.7	0	0	---	0.00	29.703 
03:50	24.1	24.1	24.1	88	21.1	0	0	---	0.00	29.703 
03:55	23.6	23.6	23.6	88	20.6	0	0	---	0.00	29.706 
04:00	23.0	23.0	23.0	87	19.7	0	0	---	0.00	29.713 
04:05	22.2	22.2	22.2	87	18.9	0	0	---	0.00	29.714 
04:10	21.8	21.8	21.8	86	18.3	0	0	---	0.00	29.716 
04:15	21.3	21.3	21.3	86	17.8	0	0	---	0.00	29.720 
04:20	20.8	20.8	20.8	86	17.3	0	0	---	0.00	29.717 
04:25	19.7	19.7	19.7	85	15.9	0	0	---	0.00	29.727 
04:30	18.9	18.9	18.9	84	14.9	2	11	248	0.00	29.730 
04:35	18.1	10.7	18.1	84	14.1	5	12	270	0.00	29.733 
04:40	17.5	10.0	17.5	84	13.5	5	10	270	0.00	29.734 
04:45	17.0	17.0	17.0	84	13.0	3	10	270	0.00	29.743 
04:50	16.7	10.4	16.7	84	12.7	4	12	270	0.00	29.749 
04:55	16.2	8.5	16.2	83	12.0	5	14	270	0.00	29.756 
05:00	15.6	7.8	15.6	83	11.4	5	11	270	0.00	29.761 
05:05	15.1	8.6	15.1	82	10.6	4	10	270	0.00	29.765 
05:10	14.6	6.6	14.6	82	10.1	5	12	270	0.00	29.765 
05:15	14.0	5.9	14.0	81	9.3	5	13	270	0.00	29.766 
05:20	13.1	4.9	13.1	80	8.1	5	11	270	0.00	29.768 
05:25	12.6	5.7	12.6	80	7.6	4	9	270	0.00	29.771 
05:30	12.1	3.7	12.1	80	7.1	5	11	270	0.00	29.781 
05:35	11.6	4.5	11.6	80	6.6	4	12	270	0.00	29.784 
05:40	10.9	1.1	10.9	79	5.7	6	18	270	0.00	29.787 
05:45	10.5	1.8	10.5	79	5.3	5	10	270	0.00	29.789 
05:50	10.2	1.5	10.2	79	5.0	5	14	270	0.00	29.798 
05:55	9.7	0.9	9.7	78	4.2	5	9	270	0.00	29.802 
06:00	9.3	1.9	9.3	78	3.9	4	11	270	0.00	29.804 
06:05	9.3	1.9	9.3	79	4.1	4	13	270	0.00	29.807 
06:10	8.8	-0.2	8.8	78	3.4	5	18	270	0.00	29.809 
06:15	8.4	0.8	8.4	78	3.0	4	10	270	0.00	29.816 
06:20	8.1	-2.2	8.1	78	2.7	6	16	270	0.00	29.819 
06:25	7.6	-2.8	7.6	77	1.9	6	13	270	0.00	29.821 
06:30	7.2	-3.3	7.2	77	1.5	6	13	270	0.00	29.823 
06:35	7.0	-2.3	7.0	77	1.3	5	10	270	0.00	29.827 
06:40	6.9	-0.9	6.9	77	1.2	4	9	270	0.00	29.833 
06:45	6.9	-0.9	6.9	77	1.2	4	8	270	0.00	29.834 
06:50	6.7	6.7	6.7	77	1.0	3	9	270	0.00	29.836 
06:55	6.1	-4.6	6.1	76	0.2	6	16	270	0.00	29.843 
07:00	6.0	-2.0	6.0	76	0.1	4	11	270	0.00	29.844 
07:05	5.8	5.8	5.8	76	-0.1	3	8	270	0.00	29.847 
07:10	5.4	-4.2	5.4	76	-0.5	5	11	270	0.00	29.850 
07:15	5.0	-4.6	5.0	76	-0.9	5	12	270	0.00	29.850 
07:20	4.8	-3.3	4.8	75	-1.4	4	12	270	0.00	29.849 
07:25	4.7	-5.0	4.7	75	-1.4	5	13	270	0.00	29.852 
07:30	4.5	-3.7	4.5	75	-1.6	4	10	270	0.00	29.854 
07:35	4.3	-6.8	4.3	75	-1.8	6	12	270	0.00	29.854 
07:40	4.1	-4.2	4.1	74	-2.3	4	7	270	0.00	29.863 
07:45	3.9	-7.2	3.9	74	-2.5	6	13	270	0.00	29.865 
07:50	3.7	-7.5	3.7	74	-2.7	6	16	270	0.00	29.869 
07:55	3.5	-4.8	3.5	74	-2.9	4	9	270	0.00	29.871 
08:00	3.4	-6.5	3.4	74	-3.0	5	13	270	0.00	29.876 
08:05	3.2	-6.8	3.2	73	-3.5	5	10	270	0.00	29.877 
08:10	3.0	-7.0	3.0	73	-3.7	5	12	270	0.00	29.880 
08:15	2.8	-7.2	2.8	73	-3.9	5	12	270	0.00	29.885 
08:20	2.6	-8.8	2.6	73	-4.0	6	11	270	0.00	29.888 
08:25	2.2	-7.9	2.2	73	-4.4	5	13	270	0.00	29.891 
08:30	2.0	-9.5	2.0	73	-4.6	6	11	270	0.00	29.891 
08:35	1.8	-8.4	1.8	72	-5.1	5	13	270	0.00	29.890 
08:40	1.8	-8.4	1.8	73	-4.8	5	14	270	0.00	29.890 
08:45	1.8	-9.7	1.8	73	-4.8	6	13	270	0.00	29.896 
08:50	1.8	-8.4	1.8	73	-4.8	5	13	270	0.00	29.894 
08:55	1.8	-8.4	1.8	73	-4.8	5	12	270	0.00	29.896 
09:00	1.8	-9.7	1.8	72	-5.1	6	14	270	0.00	29.898 
09:05	1.7	-8.5	1.7	72	-5.2	5	14	270	0.00	29.900 
09:10	1.7	-9.9	1.7	71	-5.5	6	15	270	0.00	29.902 
09:15	1.7	-6.9	1.7	72	-5.2	4	10	270	0.00	29.902 
09:20	1.5	-10.1	1.5	71	-5.7	6	15	270	0.00	29.903 
09:25	1.3	-11.5	1.3	70	-6.2	7	13	270	0.00	29.904 
09:30	1.5	-8.7	1.5	70	-6.0	5	13	270	0.00	29.910 
09:35	1.5	-10.1	1.5	70	-6.0	6	12	270	0.00	29.903 
09:40	1.5	-8.7	1.5	70	-6.0	5	17	270	0.00	29.911 
09:45	1.3	-10.3	1.3	69	-6.5	6	14	270	0.00	29.914 
09:50	1.3	-9.0	1.3	70	-6.2	5	11	270	0.00	29.916 
09:55	1.3	-7.4	1.3	70	-6.2	4	9	270	0.00	29.918 
10:00	1.5	-10.1	1.5	70	-6.0	6	14	270	0.00	29.918 
10:05	1.3	-11.5	1.3	69	-6.5	7	17	270	0.00	29.920 
10:10	1.3	-10.3	1.3	69	-6.5	6	14	270	0.00	29.918 
10:15	1.5	-8.7	1.5	70	-6.0	5	14	270	0.00	29.920 
10:20	1.5	-8.7	1.5	69	-6.3	5	13	270	0.00	29.921 
10:25	1.3	-10.3	1.3	69	-6.5	6	12	270	0.00	29.916 
10:30	1.7	-6.9	1.7	70	-5.8	4	9	270	0.00	29.919 
10:35	1.5	-10.1	1.5	69	-6.3	6	16	270	0.00	29.920 
10:40	1.5	-10.1	1.5	69	-6.3	6	17	270	0.00	29.920 
10:45	1.3	-10.3	1.3	68	-6.8	6	12	270	0.00	29.921 
10:50	1.5	-8.7	1.5	69	-6.3	5	17	270	0.00	29.920 
10:55	1.5	-11.3	1.5	69	-6.3	7	14	270	0.00	29.920 
11:00	1.3	-11.5	1.3	68	-6.8	7	17	270	0.00	29.921 
11:05	1.5	-8.7	1.5	68	-6.6	5	9	270	0.00	29.920 
11:10	1.7	-6.9	1.7	69	-6.1	4	12	270	0.00	29.916 
11:15	1.7	-9.9	1.7	69	-6.1	6	14	270	0.00	29.917 
11:20	1.5	-11.3	1.5	68	-6.6	7	14	270	0.00	29.919 
11:25	1.5	-8.7	1.5	68	-6.6	5	12	270	0.00	29.918 
11:30	1.5	-10.1	1.5	68	-6.6	6	15	270	0.00	29.920 
11:35	1.5	-10.1	1.5	68	-6.6	6	16	270	0.00	29.921 
11:40	1.5	-10.1	1.5	68	-6.6	6	13	270	0.00	29.919 
11:45	1.5	-8.7	1.5	69	-6.3	5	13	270	0.00	29.918 
11:50	1.7	-6.9	1.7	70	-5.8	4	9	270	0.00	29.917 
11:55	1.5	-11.3	1.5	69	-6.3	7	16	270	0.00	29.915 
12:00	1.3	-10.3	1.3	68	-6.8	6	15	270	0.00	29.911 
12:05	1.3	-9.0	1.3	68	-6.8	5	14	270	0.00	29.916 
12:10	1.3	-9.0	1.3	68	-6.8	5	12	270	0.00	29.915 
12:15	1.3	-11.5	1.3	68	-6.8	7	14	270	0.00	29.913 
12:20	1.3	-9.0	1.3	68	-6.8	5	11	270	0.00	29.908 
12:25	1.7	-6.9	1.7	69	-6.1	4	11	270	0.00	29.907 
12:30	1.7	-9.9	1.7	69	-6.1	6	13	270	0.00	29.904 
12:35	1.3	-10.3	1.3	69	-6.5	6	17	270	0.00	29.903 
12:40	1.3	-10.3	1.3	68	-6.8	6	14	270	0.00	29.906 
12:45	1.5	-8.7	1.5	68	-6.6	5	14	270	0.00	29.906 
12:50	1.5	-8.7	1.5	68	-6.6	5	9	270	0.00	29.907 
12:55	1.5	-10.1	1.5	68	-6.6	6	14	270	0.00	29.914 
13:00	1.3	-11.5	1.3	68	-6.8	7	15	270	0.00	29.919 
13:05	1.3	-10.3	1.3	67	-7.1	6	19	270	0.00	29.917 
13:10	1.3	-10.3	1.3	67	-7.1	6	12	270	0.00	29.917 
13:15	1.7	-6.9	1.7	69	-6.1	4	11	270	0.00	29.917 
13:20	1.5	-10.1	1.5	68	-6.6	6	18	270	0.00	29.914 
13:25	1.1	-12.8	1.1	66	-7.6	8	15	270	0.00	29.913 
13:30	0.7	-12.2	0.7	65	-8.3	7	17	270	0.00	29.915 
13:35	0.7	-11.0	0.7	66	-7.9	6	15	270	0.00	29.915 
13:40	0.7	-11.0	0.7	65	-8.3	6	17	270	0.00	29.917 
13:45	0.9	-9.5	0.9	66	-7.8	5	11	270	0.00	29.920 
13:50	0.9	-10.8	0.9	66	-7.8	6	16	270	0.00	29.920 
13:55	1.1	-10.6	1.1	67	-7.3	6	16	270	0.00	29.931 
14:00	1.3	-10.3	1.3	67	-7.1	6	11	270	0.00	29.933 
14:05	1.1	-11.7	1.1	67	-7.3	7	14	270	0.00	29.929 
14:10	1.3	-9.0	1.3	68	-6.8	5	11	270	0.00	29.930 
14:15	1.7	-6.9	1.7	69	-6.1	4	9	270	0.00	29.924 
14:20	1.5	-11.3	1.5	68	-6.6	7	15	270	0.00	29.924 
14:25	1.3	-12.5	1.3	66	-7.4	8	17	270	0.00	29.926 
14:30	1.1	-11.7	1.1	66	-7.6	7	17	270	0.00	29.932 
14:35	1.1	-12.8	1.1	65	-7.9	8	16	270	0.00	29.931 
14:40	1.1	-11.7	1.1	65	-7.9	7	18	270	0.00	29.934 
14:45	0.9	-13.0	0.9	65	-8.1	8	16	270	0.00	29.942 
14:50	0.9	-12.0	0.9	66	-7.8	7	15	270	0.00	29.945 
14:55	1.1	-9.2	1.1	67	-7.3	5	14	270	0.00	29.936 
15:00	1.1	-9.2	1.1	67	-7.3	5	15	270	0.00	29.947 
15:05	1.1	-10.6	1.1	67	-7.3	6	17	270	0.00	29.951 
15:10	0.9	-10.8	0.9	66	-7.8	6	13	270	0.00	29.952 
15:15	0.9	-7.8	0.9	67	-7.5	4	16	270	0.00	29.957 
15:20	0.7	-9.7	0.7	67	-7.6	5	12	270	0.00	29.955 
15:25	0.7	-9.7	0.7	67	-7.6	5	14	270	0.00	29.967 
15:30	0.5	-11.3	0.5	66	-8.1	6	11	270	0.00	29.965 
15:35	0.7	0.7	0.7	68	-7.3	3	11	270	0.00	29.967 
15:40	0.5	-11.3	0.5	66	-8.1	6	16	270	0.00	29.968 
15:45	0.3	-12.7	0.3	65	-8.6	7	15	270	0.00	29.975 
15:50	0.1	-10.4	0.1	66	-8.5	5	13	270	0.00	29.975 
15:55	0.1	-10.4	0.1	66	-8.5	5	13	270	0.00	29.975 
16:00	0.0	-11.9	0.0	67	-8.3	6	13	270	0.00	29.981 
16:05	-0.2	-12.1	-0.2	68	-8.2	6	16	270	0.00	29.985 
16:10	-0.4	-12.4	-0.4	69	-8.1	6	14	248	0.00	29.988 
16:15	-0.4	-9.3	-0.4	69	-8.1	4	14	270	0.00	29.990 
16:20	-0.4	-12.4	-0.4	68	-8.4	6	14	270	0.00	29.991 
16:25	-0.4	-9.3	-0.4	68	-8.4	4	10	270	0.00	29.997 
16:30	-0.6	-11.2	-0.6	68	-8.6	5	15	270	0.00	30.007 
16:35	-0.8	-14.0	-0.8	66	-9.4	7	16	270	0.00	30.012 
16:40	-1.0	-13.1	-1.0	67	-9.3	6	15	270	0.00	30.018 
16:45	-1.0	-13.1	-1.0	67	-9.3	6	13	270	0.00	30.026 
16:50	-1.0	-10.0	-1.0	68	-9.0	4	13	270	0.00	30.033 
16:55	-1.0	-10.0	-1.0	68	-9.0	4	10	248	0.00	30.036 
17:00	-1.2	-11.9	-1.2	68	-9.2	5	15	270	0.00	30.038 
17:05	-1.2	-11.9	-1.2	67	-9.5	5	13	270	0.00	30.046 
17:10	-1.4	-12.2	-1.4	67	-9.7	5	14	270	0.00	30.046 
17:15	-1.4	-10.5	-1.4	68	-9.4	4	11	270	0.00	30.046 
17:20	-1.6	-13.8	-1.6	68	-9.5	6	13	270	0.00	30.050 
17:25	-1.6	-13.8	-1.6	69	-9.3	6	14	270	0.00	30.059 
17:30	-1.6	-10.7	-1.6	69	-9.3	4	12	270	0.00	30.062 
17:35	-1.6	-12.4	-1.6	69	-9.3	5	14	270	0.00	30.060 
17:40	-1.8	-12.6	-1.8	69	-9.4	5	11	270	0.00	30.063 
17:45	-1.8	-14.0	-1.8	69	-9.4	6	13	270	0.00	30.068 
17:50	-1.8	-12.6	-1.8	70	-9.2	5	14	270	0.00	30.070 
17:55	-2.0	-12.9	-2.0	69	-9.6	5	11	270	0.00	30.067 
18:00	-2.0	-11.2	-2.0	69	-9.6	4	10	270	0.00	30.070 
18:05	-2.0	-11.2	-2.0	69	-9.6	4	10	270	0.00	30.076 
18:10	-2.0	-12.9	-2.0	69	-9.6	5	13	270	0.00	30.077 
18:15	-2.0	-2.0	-2.0	70	-9.3	3	10	248	0.00	30.082 
18:20	-2.0	-11.2	-2.0	70	-9.3	4	9	270	0.00	30.086 
18:25	-2.0	-11.2	-2.0	70	-9.3	4	10	270	0.00	30.087 
18:30	-2.0	-11.2	-2.0	70	-9.3	4	10	270	0.00	30.090 
18:35	-2.0	-11.2	-2.0	70	-9.3	4	14	270	0.00	30.091 
18:40	-2.0	-11.2	-2.0	70	-9.3	4	9	270	0.00	30.097 
18:45	-2.0	-2.0	-2.0	70	-9.3	3	8	270	0.00	30.096 
18:50	-2.0	-12.9	-2.0	69	-9.6	5	10	270	0.00	30.098 
18:55	-2.0	-12.9	-2.0	69	-9.6	5	12	270	0.00	30.099 
19:00	-2.0	-12.9	-2.0	69	-9.6	5	14	270	0.00	30.101 
19:05	-2.0	-11.2	-2.0	69	-9.6	4	10	270	0.00	30.103 
19:10	-2.0	-11.2	-2.0	69	-9.6	4	11	270	0.00	30.110 
19:15	-2.0	-11.2	-2.0	69	-9.6	4	10	270	0.00	30.109 
19:20	-2.0	-12.9	-2.0	69	-9.6	5	11	270	0.00	30.110 
19:25	-2.0	-2.0	-2.0	70	-9.3	3	11	270	0.00	30.113 
19:30	-2.0	-2.0	-2.0	70	-9.3	3	10	270	0.00	30.118 
19:35	-2.0	-11.2	-2.0	70	-9.3	4	11	270	0.00	30.120 
19:40	-2.0	-11.2	-2.0	69	-9.6	4	11	270	0.00	30.119 
19:45	-2.0	-11.2	-2.0	69	-9.6	4	12	270	0.00	30.131 
19:50	-2.2	-13.1	-2.2	69	-9.8	5	10	270	0.00	30.129 
19:55	-2.0	-2.0	-2.0	69	-9.6	3	9	270	0.00	30.129 
20:00	-2.2	-2.2	-2.2	69	-9.8	3	9	270	0.00	30.131 
20:05	-2.2	-2.2	-2.2	69	-9.8	3	9	270	0.00	30.130 
20:10	-2.2	-11.4	-2.2	69	-9.8	4	10	270	0.00	30.129 
20:15	-2.2	-11.4	-2.2	69	-9.8	4	10	270	0.00	30.131 
20:20	-2.0	-11.2	-2.0	68	-9.9	4	13	270	0.00	30.131 
20:25	-2.0	-11.2	-2.0	69	-9.6	4	12	270	0.00	30.132 
20:30	-2.0	-11.2	-2.0	69	-9.6	4	9	270	0.00	30.134 
20:35	-2.0	-11.2	-2.0	69	-9.6	4	9	270	0.00	30.136 
20:40	-2.0	-11.2	-2.0	69	-9.6	4	13	270	0.00	30.139 
20:45	-2.0	-11.2	-2.0	70	-9.3	4	9	270	0.00	30.144 
20:50	-2.0	-12.9	-2.0	70	-9.3	5	11	270	0.00	30.145 
20:55	-2.0	-11.2	-2.0	69	-9.6	4	10	270	0.00	30.147 
21:00	-2.0	-11.2	-2.0	69	-9.6	4	10	270	0.00	30.149 
21:05	-2.0	-11.2	-2.0	69	-9.6	4	10	270	0.00	30.145 
21:10	-2.0	-12.9	-2.0	68	-9.9	5	18	270	0.00	30.149 
21:15	-2.0	-11.2	-2.0	68	-9.9	4	12	270	0.00	30.149 
21:20	-2.0	-12.9	-2.0	68	-9.9	5	13	270	0.00	30.151 
21:25	-2.0	-12.9	-2.0	67	-10.2	5	15	270	0.00	30.152 
21:30	-2.0	-2.0	-2.0	67	-10.2	3	9	270	0.00	30.155 
21:35	-2.0	-2.0	-2.0	67	-10.2	3	9	270	0.00	30.153 
21:40	-2.0	-2.0	-2.0	68	-9.9	3	5	270	0.00	30.160 
21:45	-2.0	-11.2	-2.0	69	-9.6	4	11	270	0.00	30.163 
21:50	-2.0	-11.2	-2.0	69	-9.6	4	9	270	0.00	30.165 
21:55	-2.0	-11.2	-2.0	69	-9.6	4	9	270	0.00	30.165 
22:00	-2.0	-12.9	-2.0	68	-9.9	5	13	270	0.00	30.162 
22:05	-2.0	-11.2	-2.0	68	-9.9	4	9	270	0.00	30.166 
22:10	-2.0	-12.9	-2.0	68	-9.9	5	12	270	0.00	30.168 
22:15	-2.0	-12.9	-2.0	68	-9.9	5	10	270	0.00	30.173 
22:20	-2.0	-11.2	-2.0	68	-9.9	4	9	270	0.00	30.169 
22:25	-2.0	-11.2	-2.0	68	-9.9	4	11	270	0.00	30.168 
22:30	-2.2	-11.4	-2.2	68	-10.1	4	12	270	0.00	30.167 
22:35	-2.2	-2.2	-2.2	68	-10.1	3	7	270	0.00	30.168 
22:40	-2.2	-11.4	-2.2	68	-10.1	4	11	270	0.00	30.168 
22:45	-2.2	-2.2	-2.2	68	-10.1	3	10	270	0.00	30.171 
22:50	-2.2	-2.2	-2.2	68	-10.1	3	10	270	0.00	30.172 
22:55	-2.2	-13.1	-2.2	68	-10.1	5	12	270	0.00	30.173 
23:00	-2.2	-2.2	-2.2	68	-10.1	3	7	270	0.00	30.173 
23:05	-2.2	-11.4	-2.2	68	-10.1	4	11	270	0.00	30.173 
23:10	-2.2	-13.1	-2.2	68	-10.1	5	14	270	0.00	30.172 
23:15	-2.2	-11.4	-2.2	68	-10.1	4	7	270	0.00	30.180 
23:20	-2.2	-11.4	-2.2	68	-10.1	4	9	270	0.00	30.180 
23:25	-2.2	-11.4	-2.2	68	-10.1	4	14	270	0.00	30.182 
23:30	-2.2	-11.4	-2.2	68	-10.1	4	10	270	0.00	30.182 
23:35	-2.2	-2.2	-2.2	68	-10.1	3	7	270	0.00	30.184 
23:40	-2.2	-11.4	-2.2	68	-10.1	4	12	270	0.00	30.190 
23:45	-2.2	-11.4	-2.2	68	-10.1	4	7	270	0.00	30.192 
23:50	-2.2	-11.4	-2.2	68	-10.1	4	7	270	0.00	30.196 
23:55	-2.0	-11.2	-2.0	69	-9.6	4	10	270	0.00	30.195 

CoCoRaHS
IN-AL-39
A2 Web Hosting
Creative Commons License
GoDaddy
search engine by freefind advanced

loaded 2018-11-17 15:07:56 • last modified 2010-11-18 10:43:29
Privacy PolicyDisclaimer
• wx.awcolley.com is powered by PmWiki v.2002016 •
• all content (unless otherwise noted) © 2018 A W Colley